Weather History for Pella, IA

Change the Weather History Date:

Friday, February 8, 2013

  Actual Average (KOXV) Record (KOXV)
Temperature  
Mean Temperature 29 °F -  
Max Temperature 31 °F 31 °F 59 °F (1954)
Min Temperature 27 °F 13 °F -18 °F (1971)
Degree Days  
Heating Degree Days 36    
Moisture  
Dew Point 25 °F    
Average Humidity 84    
Maximum Humidity 90    
Minimum Humidity 75    
Precipitation  
Precipitation 0.00 in - - ()
Sea Level Pressure  
Sea Level Pressure 30.31 in    
Wind  
Wind Speed 10 mph (NE)    
Max Wind Speed 16 mph    
Max Gust Speed 22 mph    
Visibility 10 miles    
Events      
Averages and records for this station are not official NWS values.
T = Trace of Precipitation, MM = Missing Value Source: NWS Daily Summary

Daily Weather History Graph

Daily Weather History Graph

Search for Another Location

Airport:

Trip Planner

Search our weather history database for the weather conditions in past years. The results will help you decide how hot, cold, wet, or windy it might be!

Date:

Astronomy

Feb. 08, 2013 Rise Set
Actual Time 7:15 AM CST 5:37 PM CST
Civil Twilight 6:46 AM CST 6:06 PM CST
Nautical Twilight 6:13 AM CST 6:38 PM CST
Astronomical Twilight 5:41 AM CST 7:10 PM CST
Moon 5:44 AM CST (2/8) 4:10 PM CST (2/8)
Length of Visible Light 11h 19m
Length of Day
10h 21m
Waning Crescent, 3% of the Moon is Illuminated
Feb 8
Waning Crescent
Feb 10
New
Feb 17
First Quarter
Feb 25
Full
Mar 4
Last Quarter

Hourly Weather History & Observations

Time (CST) Temp. Windchill Dew Point Humidity Pressure Visibility Wind Dir Wind Speed Gust Speed Precip Events Conditions
12:15 AM 30.2 °F 18.9 °F 27.1 °F 88% 30.18 in 7.0 mi NNW 16.1 mph - N/A   Overcast
12:35 AM 30.0 °F 19.5 °F 27.0 °F 88% 30.19 in 7.0 mi North 13.8 mph 19.6 mph N/A   Overcast
12:55 AM 29.8 °F 19.3 °F 27.0 °F 89% 30.20 in 7.0 mi NNW 13.8 mph - N/A   Overcast
1:15 AM 29.8 °F 19.3 °F 26.6 °F 88% 30.21 in 7.0 mi NNW 13.8 mph - N/A   Overcast
1:35 AM 29.7 °F 19.1 °F 26.4 °F 88% 30.22 in 7.0 mi NW 13.8 mph 17.3 mph N/A   Overcast
1:55 AM 29.7 °F 20.1 °F 26.2 °F 87% 30.23 in 7.0 mi NNW 11.5 mph - N/A   Overcast
2:15 AM 29.3 °F 18.6 °F 25.7 °F 86% 30.24 in 10.0 mi NW 13.8 mph - N/A   Overcast
2:35 AM 29.3 °F 17.7 °F 25.5 °F 86% 30.25 in 10.0 mi NW 16.1 mph 19.6 mph N/A   Overcast
2:55 AM 28.9 °F 17.7 °F 25.0 °F 85% 30.25 in 10.0 mi NW 15.0 mph 20.7 mph N/A   Overcast
3:35 AM 28.8 °F 19.0 °F 24.6 °F 84% 30.25 in 10.0 mi North 11.5 mph 21.9 mph N/A   Overcast
3:55 AM 28.6 °F 17.2 °F 24.6 °F 85% 30.26 in 10.0 mi NNW 15.0 mph 18.4 mph N/A   Overcast
4:15 AM 28.4 °F 18.0 °F 24.4 °F 85% 30.27 in 10.0 mi NW 12.7 mph - N/A   Overcast
4:35 AM 28.4 °F 18.0 °F 24.4 °F 85% 30.27 in 10.0 mi NNW 12.7 mph 18.4 mph N/A   Overcast
4:55 AM 28.2 °F 20.2 °F 24.4 °F 86% 30.28 in 10.0 mi North 8.1 mph 17.3 mph N/A   Overcast
5:15 AM 28.2 °F 20.2 °F 24.6 °F 86% 30.29 in 10.0 mi North 8.1 mph - N/A   Overcast
5:35 AM 27.9 °F 17.8 °F 24.4 °F 87% 30.30 in 10.0 mi NNW 11.5 mph - N/A   Overcast
5:55 AM 27.9 °F 19.8 °F 24.4 °F 87% 30.29 in 10.0 mi NNW 8.1 mph - N/A   Overcast
6:15 AM 27.9 °F 19.1 °F 24.4 °F 87% 30.30 in 10.0 mi North 9.2 mph - N/A   Overcast
6:35 AM 27.9 °F 19.8 °F 24.3 °F 86% 30.31 in 10.0 mi North 8.1 mph - N/A   Overcast
6:55 AM 27.5 °F 18.6 °F 24.3 °F 88% 30.31 in 10.0 mi North 9.2 mph - N/A   Overcast
7:15 AM 27.5 °F 20.2 °F 24.3 °F 88% 30.32 in 10.0 mi NNW 6.9 mph - N/A   Overcast
7:35 AM 27.5 °F 22.2 °F 24.4 °F 88% 30.32 in 10.0 mi NNW 4.6 mph - N/A   Overcast
7:55 AM 27.5 °F 22.2 °F 24.6 °F 89% 30.34 in 10.0 mi North 4.6 mph - N/A   Overcast
8:15 AM 27.9 °F 21.5 °F 24.6 °F 88% 30.34 in 10.0 mi North 5.8 mph - N/A   Overcast
8:35 AM 28.0 °F 20.8 °F 24.8 °F 88% 30.36 in 10.0 mi North 6.9 mph - N/A   Overcast
8:55 AM 28.0 °F 20.0 °F 24.6 °F 87% 30.36 in 10.0 mi North 8.1 mph - N/A   Overcast
9:15 AM 28.0 °F 20.0 °F 24.6 °F 87% 30.36 in 10.0 mi NNW 8.1 mph - N/A   Overcast
9:35 AM 28.0 °F 21.7 °F 24.6 °F 87% 30.36 in 10.0 mi North 5.8 mph - N/A   Overcast
9:55 AM 28.4 °F 24.6 °F 24.8 °F 86% 30.36 in 10.0 mi NNE 3.5 mph - N/A   Overcast
10:15 AM 28.4 °F 22.2 °F 24.8 °F 86% 30.36 in 10.0 mi North 5.8 mph - N/A   Overcast
10:35 AM 28.8 °F 22.6 °F 24.8 °F 85% 30.36 in 10.0 mi ENE 5.8 mph - N/A   Overcast
10:55 AM 29.1 °F 22.1 °F 24.6 °F 83% 30.36 in 10.0 mi NNE 6.9 mph - N/A   Overcast
11:15 AM 29.3 °F - 24.3 °F 81% 30.37 in 10.0 mi Calm Calm - N/A   Overcast
11:35 AM 29.5 °F - 24.3 °F 81% 30.37 in 10.0 mi Calm Calm - N/A   Overcast
11:55 AM 29.8 °F 26.3 °F 24.3 °F 80% 30.36 in 10.0 mi ENE 3.5 mph - N/A   Overcast
12:15 PM 30.2 °F - 23.9 °F 77% 30.36 in 10.0 mi Calm Calm - N/A   Overcast
12:35 PM 30.4 °F 24.5 °F 23.7 °F 76% 30.36 in 10.0 mi NNW 5.8 mph - N/A   Overcast
12:55 PM 30.2 °F - 23.5 °F 76% 30.36 in 10.0 mi Calm Calm - N/A   Overcast
1:15 PM 30.7 °F - 24.1 °F 76% 30.36 in 10.0 mi Calm Calm - N/A   Overcast
1:35 PM 30.6 °F - 23.9 °F 76% 30.36 in 10.0 mi Calm Calm - N/A   Overcast
1:55 PM 31.1 °F 27.7 °F 24.6 °F 77% 30.35 in 10.0 mi ESE 3.5 mph - N/A   Overcast
2:15 PM 31.1 °F - 24.1 °F 75% 30.34 in 10.0 mi Calm Calm - N/A   Overcast
2:35 PM 31.1 °F 26.4 °F 24.6 °F 77% 30.34 in 10.0 mi SE 4.6 mph - N/A   Overcast
2:55 PM 31.3 °F - 24.4 °F 76% 30.34 in 10.0 mi Calm Calm - N/A   Overcast
3:15 PM 31.3 °F 27.9 °F 25.0 °F 77% 30.34 in 10.0 mi SSE 3.5 mph - N/A   Overcast
3:35 PM 30.6 °F 25.8 °F 24.4 °F 78% 30.34 in 10.0 mi SE 4.6 mph - N/A   Overcast
3:55 PM 30.7 °F 24.1 °F 24.6 °F 78% 30.33 in 10.0 mi South 6.9 mph - N/A   Overcast
4:15 PM 30.7 °F 23.3 °F 24.8 °F 79% 30.33 in 10.0 mi South 8.1 mph - N/A   Overcast
4:35 PM 30.2 °F 25.4 °F 24.4 °F 79% 30.32 in 10.0 mi SE 4.6 mph - N/A   Overcast
4:55 PM 30.2 °F 23.4 °F 24.8 °F 80% 30.31 in 10.0 mi SSE 6.9 mph - N/A   Overcast
5:35 PM 30.2 °F 23.4 °F 25.2 °F 82% 30.33 in 10.0 mi South 6.9 mph - N/A   Overcast
5:55 PM 29.8 °F 23.9 °F 24.4 °F 80% 30.32 in 10.0 mi ESE 5.8 mph - N/A   Overcast
6:15 PM 29.8 °F 23.9 °F 24.8 °F 81% 30.33 in 10.0 mi SSE 5.8 mph - N/A   Overcast
6:35 PM 29.8 °F 23.9 °F 24.8 °F 81% 30.32 in 7.0 mi SE 5.8 mph - N/A   Overcast
6:55 PM 29.5 °F 21.8 °F 24.6 °F 82% 30.32 in 7.0 mi SSE 8.1 mph - N/A   Overcast
7:15 PM 29.5 °F 21.1 °F 24.8 °F 83% 30.32 in 7.0 mi SSE 9.2 mph - N/A   Overcast
7:35 PM 29.3 °F 21.5 °F 24.6 °F 83% 30.32 in 10.0 mi SSE 8.1 mph - N/A   Overcast
7:55 PM 29.3 °F 21.5 °F 25.2 °F 85% 30.30 in 10.0 mi SE 8.1 mph - N/A   Overcast
8:15 PM 29.1 °F 19.4 °F 24.8 °F 84% 30.30 in 7.0 mi SSE 11.5 mph 17.3 mph N/A   Overcast
8:35 PM 29.1 °F 20.6 °F 25.0 °F 85% 30.31 in 10.0 mi SSE 9.2 mph - N/A   Overcast
8:55 PM 29.1 °F 20.6 °F 25.2 °F 85% 30.30 in 10.0 mi SE 9.2 mph - N/A   Overcast
9:15 PM 28.9 °F 21.9 °F 25.2 °F 86% 30.30 in 10.0 mi SE 6.9 mph - N/A   Overcast
9:35 PM 28.9 °F 21.1 °F 25.3 °F 86% 30.31 in 10.0 mi SSE 8.1 mph - N/A   Overcast
9:55 PM 28.9 °F 21.1 °F 25.5 °F 87% 30.30 in 10.0 mi SSE 8.1 mph - N/A   Overcast
10:15 PM 29.1 °F 18.4 °F 26.1 °F 88% 30.29 in 10.0 mi SSE 13.8 mph 17.3 mph N/A   Overcast
10:35 PM 28.9 °F 19.8 °F 25.7 °F 88% 30.29 in 10.0 mi SSE 10.4 mph - N/A   Overcast
10:55 PM 28.9 °F 18.6 °F 25.9 °F 88% 30.30 in 10.0 mi South 12.7 mph - N/A   Overcast
11:15 PM 28.9 °F 20.4 °F 26.4 °F 90% 30.29 in 10.0 mi South 9.2 mph - N/A   Overcast
11:35 PM 28.8 °F 19.5 °F 26.1 °F 90% 30.29 in 10.0 mi SSE 10.4 mph - N/A   Overcast
11:55 PM 28.8 °F 19.5 °F 26.2 °F 90% 30.29 in 10.0 mi SSE 10.4 mph - N/A   Overcast